sensor_id;sensor_type;location;lat;lon;timestamp;P1;durP1;ratioP1;P2;durP2;ratioP2
71773;SDS011;59607;52.130;5.430;2024-03-08T00:02:06;22.13;;;10.23;;
71773;SDS011;59607;52.130;5.430;2024-03-08T00:04:33;22.60;;;10.30;;
71773;SDS011;59607;52.130;5.430;2024-03-08T00:07:06;22.45;;;10.85;;
71773;SDS011;59607;52.130;5.430;2024-03-08T00:09:33;24.98;;;10.70;;
71773;SDS011;59607;52.130;5.430;2024-03-08T00:12:02;22.70;;;11.00;;
71773;SDS011;59607;52.130;5.430;2024-03-08T00:14:34;22.93;;;10.57;;
71773;SDS011;59607;52.130;5.430;2024-03-08T00:17:10;24.52;;;11.38;;
71773;SDS011;59607;52.130;5.430;2024-03-08T00:19:37;27.02;;;10.20;;
71773;SDS011;59607;52.130;5.430;2024-03-08T00:22:03;21.63;;;10.63;;
71773;SDS011;59607;52.130;5.430;2024-03-08T00:24:30;22.25;;;11.30;;
71773;SDS011;59607;52.130;5.430;2024-03-08T00:26:59;25.80;;;11.43;;
71773;SDS011;59607;52.130;5.430;2024-03-08T00:29:32;21.55;;;10.10;;
71773;SDS011;59607;52.130;5.430;2024-03-08T00:31:58;21.20;;;10.98;;
71773;SDS011;59607;52.130;5.430;2024-03-08T00:34:25;23.55;;;10.57;;
71773;SDS011;59607;52.130;5.430;2024-03-08T00:36:51;23.17;;;11.23;;
71773;SDS011;59607;52.130;5.430;2024-03-08T00:39:18;22.50;;;10.77;;
71773;SDS011;59607;52.130;5.430;2024-03-08T00:41:51;21.00;;;10.35;;
71773;SDS011;59607;52.130;5.430;2024-03-08T00:44:35;23.15;;;11.40;;
71773;SDS011;59607;52.130;5.430;2024-03-08T00:47:09;23.73;;;10.50;;
71773;SDS011;59607;52.130;5.430;2024-03-08T00:49:35;23.92;;;11.05;;
71773;SDS011;59607;52.130;5.430;2024-03-08T00:52:19;21.00;;;10.10;;
71773;SDS011;59607;52.130;5.430;2024-03-08T00:54:59;19.92;;;9.10;;
71773;SDS011;59607;52.130;5.430;2024-03-08T00:57:40;24.23;;;11.25;;
71773;SDS011;59607;52.130;5.430;2024-03-08T01:00:10;23.83;;;11.05;;
71773;SDS011;59607;52.130;5.430;2024-03-08T01:02:41;19.67;;;11.00;;
71773;SDS011;59607;52.130;5.430;2024-03-08T01:05:10;23.37;;;9.87;;
71773;SDS011;59607;52.130;5.430;2024-03-08T01:07:37;19.65;;;10.40;;
71773;SDS011;59607;52.130;5.430;2024-03-08T01:10:04;20.60;;;10.57;;
71773;SDS011;59607;52.130;5.430;2024-03-08T01:12:36;25.80;;;11.43;;
71773;SDS011;59607;52.130;5.430;2024-03-08T01:15:02;23.02;;;10.75;;
71773;SDS011;59607;52.130;5.430;2024-03-08T01:17:29;21.37;;;9.90;;
71773;SDS011;59607;52.130;5.430;2024-03-08T01:19:56;24.05;;;11.35;;
71773;SDS011;59607;52.130;5.430;2024-03-08T01:22:25;23.02;;;10.25;;
71773;SDS011;59607;52.130;5.430;2024-03-08T01:24:54;23.75;;;11.50;;
71773;SDS011;59607;52.130;5.430;2024-03-08T01:27:25;18.88;;;9.45;;
71773;SDS011;59607;52.130;5.430;2024-03-08T01:29:55;23.07;;;10.77;;
71773;SDS011;59607;52.130;5.430;2024-03-08T01:32:21;25.00;;;11.35;;
71773;SDS011;59607;52.130;5.430;2024-03-08T01:34:52;23.83;;;11.32;;
71773;SDS011;59607;52.130;5.430;2024-03-08T01:37:18;25.02;;;10.95;;
71773;SDS011;59607;52.130;5.430;2024-03-08T01:39:45;31.55;;;11.10;;
71773;SDS011;59607;52.130;5.430;2024-03-08T01:42:25;24.07;;;11.07;;
71773;SDS011;59607;52.130;5.430;2024-03-08T01:45:00;18.98;;;10.25;;
71773;SDS011;59607;52.130;5.430;2024-03-08T01:47:27;19.55;;;10.48;;
71773;SDS011;59607;52.130;5.430;2024-03-08T01:50:08;19.85;;;10.77;;
71773;SDS011;59607;52.130;5.430;2024-03-08T01:52:44;20.42;;;10.68;;
71773;SDS011;59607;52.130;5.430;2024-03-08T01:55:11;24.90;;;11.63;;
71773;SDS011;59607;52.130;5.430;2024-03-08T01:57:44;25.20;;;11.82;;
71773;SDS011;59607;52.130;5.430;2024-03-08T02:00:11;28.10;;;11.35;;
71773;SDS011;59607;52.130;5.430;2024-03-08T02:02:39;19.13;;;11.18;;
71773;SDS011;59607;52.130;5.430;2024-03-08T02:05:13;20.30;;;10.60;;
71773;SDS011;59607;52.130;5.430;2024-03-08T02:07:44;22.67;;;11.47;;
71773;SDS011;59607;52.130;5.430;2024-03-08T02:10:17;21.30;;;11.02;;
71773;SDS011;59607;52.130;5.430;2024-03-08T02:12:47;18.88;;;10.30;;
71773;SDS011;59607;52.130;5.430;2024-03-08T02:15:14;20.48;;;11.27;;
71773;SDS011;59607;52.130;5.430;2024-03-08T02:17:41;20.60;;;11.00;;
71773;SDS011;59607;52.130;5.430;2024-03-08T02:20:08;21.43;;;10.63;;
71773;SDS011;59607;52.130;5.430;2024-03-08T02:22:41;21.35;;;10.82;;
71773;SDS011;59607;52.130;5.430;2024-03-08T02:25:11;26.90;;;12.25;;
71773;SDS011;59607;52.130;5.430;2024-03-08T02:27:41;21.10;;;11.60;;
71773;SDS011;59607;52.130;5.430;2024-03-08T02:30:08;20.75;;;11.43;;
71773;SDS011;59607;52.130;5.430;2024-03-08T02:32:43;22.50;;;11.27;;
71773;SDS011;59607;52.130;5.430;2024-03-08T02:35:10;21.25;;;10.98;;
71773;SDS011;59607;52.130;5.430;2024-03-08T02:37:36;22.95;;;11.02;;
71773;SDS011;59607;52.130;5.430;2024-03-08T02:40:10;19.95;;;10.88;;
71773;SDS011;59607;52.130;5.430;2024-03-08T02:42:38;20.33;;;11.50;;
71773;SDS011;59607;52.130;5.430;2024-03-08T02:45:05;21.60;;;11.73;;
71773;SDS011;59607;52.130;5.430;2024-03-08T02:47:36;17.52;;;10.85;;
71773;SDS011;59607;52.130;5.430;2024-03-08T02:50:02;22.88;;;11.73;;
71773;SDS011;59607;52.130;5.430;2024-03-08T02:52:34;20.23;;;11.07;;
71773;SDS011;59607;52.130;5.430;2024-03-08T02:55:01;23.27;;;10.93;;
71773;SDS011;59607;52.130;5.430;2024-03-08T02:57:31;22.50;;;11.73;;
71773;SDS011;59607;52.130;5.430;2024-03-08T02:59:58;21.27;;;11.43;;
71773;SDS011;59607;52.130;5.430;2024-03-08T03:02:26;20.23;;;11.13;;
71773;SDS011;59607;52.130;5.430;2024-03-08T03:04:55;21.30;;;11.25;;
71773;SDS011;59607;52.130;5.430;2024-03-08T03:07:22;21.48;;;10.75;;
71773;SDS011;59607;52.130;5.430;2024-03-08T03:09:48;20.03;;;10.70;;
71773;SDS011;59607;52.130;5.430;2024-03-08T03:12:15;20.80;;;10.70;;
71773;SDS011;59607;52.130;5.430;2024-03-08T03:14:58;24.65;;;10.50;;
71773;SDS011;59607;52.130;5.430;2024-03-08T03:17:28;20.02;;;11.50;;
71773;SDS011;59607;52.130;5.430;2024-03-08T03:19:54;22.13;;;11.73;;
71773;SDS011;59607;52.130;5.430;2024-03-08T03:22:25;22.80;;;11.23;;
71773;SDS011;59607;52.130;5.430;2024-03-08T03:24:51;23.30;;;11.27;;
71773;SDS011;59607;52.130;5.430;2024-03-08T03:27:19;21.90;;;10.88;;
71773;SDS011;59607;52.130;5.430;2024-03-08T03:29:48;22.55;;;11.15;;
71773;SDS011;59607;52.130;5.430;2024-03-08T03:32:16;22.67;;;11.60;;
71773;SDS011;59607;52.130;5.430;2024-03-08T03:34:46;16.30;;;10.97;;
71773;SDS011;59607;52.130;5.430;2024-03-08T03:37:21;24.23;;;10.40;;
71773;SDS011;59607;52.130;5.430;2024-03-08T03:39:48;20.73;;;11.60;;
71773;SDS011;59607;52.130;5.430;2024-03-08T03:42:34;17.73;;;10.35;;
71773;SDS011;59607;52.130;5.430;2024-03-08T03:45:05;23.10;;;11.68;;
71773;SDS011;59607;52.130;5.430;2024-03-08T03:47:32;22.90;;;10.97;;
71773;SDS011;59607;52.130;5.430;2024-03-08T03:50:05;20.63;;;10.50;;
71773;SDS011;59607;52.130;5.430;2024-03-08T03:52:32;20.88;;;10.73;;
71773;SDS011;59607;52.130;5.430;2024-03-08T03:55:02;22.60;;;11.63;;
71773;SDS011;59607;52.130;5.430;2024-03-08T03:57:33;17.67;;;11.25;;
71773;SDS011;59607;52.130;5.430;2024-03-08T04:00:05;24.43;;;10.97;;
71773;SDS011;59607;52.130;5.430;2024-03-08T04:02:39;19.63;;;10.50;;
71773;SDS011;59607;52.130;5.430;2024-03-08T04:05:10;19.23;;;10.68;;
71773;SDS011;59607;52.130;5.430;2024-03-08T04:07:40;20.55;;;11.00;;
71773;SDS011;59607;52.130;5.430;2024-03-08T04:10:07;21.00;;;11.00;;
71773;SDS011;59607;52.130;5.430;2024-03-08T04:12:42;19.00;;;10.53;;
71773;SDS011;59607;52.130;5.430;2024-03-08T04:15:09;21.02;;;11.73;;
71773;SDS011;59607;52.130;5.430;2024-03-08T04:17:42;18.20;;;10.48;;
71773;SDS011;59607;52.130;5.430;2024-03-08T04:20:09;21.33;;;11.80;;
71773;SDS011;59607;52.130;5.430;2024-03-08T04:22:50;21.42;;;11.93;;
71773;SDS011;59607;52.130;5.430;2024-03-08T04:25:19;23.20;;;12.50;;
71773;SDS011;59607;52.130;5.430;2024-03-08T04:27:49;22.00;;;11.10;;
71773;SDS011;59607;52.130;5.430;2024-03-08T04:30:18;19.15;;;10.20;;
71773;SDS011;59607;52.130;5.430;2024-03-08T04:32:50;22.25;;;10.57;;
71773;SDS011;59607;52.130;5.430;2024-03-08T04:35:16;19.77;;;10.25;;
71773;SDS011;59607;52.130;5.430;2024-03-08T04:37:46;22.03;;;11.33;;
71773;SDS011;59607;52.130;5.430;2024-03-08T04:40:20;21.85;;;10.98;;
71773;SDS011;59607;52.130;5.430;2024-03-08T04:42:50;23.85;;;12.07;;
71773;SDS011;59607;52.130;5.430;2024-03-08T04:45:20;18.00;;;10.77;;
71773;SDS011;59607;52.130;5.430;2024-03-08T04:47:48;20.77;;;10.85;;
71773;SDS011;59607;52.130;5.430;2024-03-08T04:50:20;20.03;;;11.93;;
71773;SDS011;59607;52.130;5.430;2024-03-08T04:52:47;19.63;;;11.15;;
71773;SDS011;59607;52.130;5.430;2024-03-08T04:55:17;17.40;;;10.98;;
71773;SDS011;59607;52.130;5.430;2024-03-08T04:57:47;16.08;;;10.57;;
71773;SDS011;59607;52.130;5.430;2024-03-08T05:00:17;19.50;;;10.93;;
71773;SDS011;59607;52.130;5.430;2024-03-08T05:02:49;17.53;;;10.70;;
71773;SDS011;59607;52.130;5.430;2024-03-08T05:05:22;19.77;;;10.68;;
71773;SDS011;59607;52.130;5.430;2024-03-08T05:07:51;22.15;;;11.57;;
71773;SDS011;59607;52.130;5.430;2024-03-08T05:10:18;21.52;;;11.77;;
71773;SDS011;59607;52.130;5.430;2024-03-08T05:12:50;19.20;;;10.70;;
71773;SDS011;59607;52.130;5.430;2024-03-08T05:15:25;17.53;;;10.60;;
71773;SDS011;59607;52.130;5.430;2024-03-08T05:17:54;20.42;;;11.27;;
71773;SDS011;59607;52.130;5.430;2024-03-08T05:20:22;22.05;;;12.20;;
71773;SDS011;59607;52.130;5.430;2024-03-08T05:22:55;15.60;;;10.70;;
71773;SDS011;59607;52.130;5.430;2024-03-08T05:25:21;24.17;;;10.98;;
71773;SDS011;59607;52.130;5.430;2024-03-08T05:27:52;20.67;;;11.83;;
71773;SDS011;59607;52.130;5.430;2024-03-08T05:30:19;20.77;;;11.93;;
71773;SDS011;59607;52.130;5.430;2024-03-08T05:32:51;18.58;;;10.55;;
71773;SDS011;59607;52.130;5.430;2024-03-08T05:35:18;20.70;;;11.32;;
71773;SDS011;59607;52.130;5.430;2024-03-08T05:37:51;22.70;;;12.60;;
71773;SDS011;59607;52.130;5.430;2024-03-08T05:40:25;19.13;;;11.30;;
71773;SDS011;59607;52.130;5.430;2024-03-08T05:42:51;20.23;;;10.77;;
71773;SDS011;59607;52.130;5.430;2024-03-08T05:45:24;19.70;;;10.52;;
71773;SDS011;59607;52.130;5.430;2024-03-08T05:47:53;20.30;;;11.63;;
71773;SDS011;59607;52.130;5.430;2024-03-08T05:50:20;19.50;;;11.55;;
71773;SDS011;59607;52.130;5.430;2024-03-08T05:52:53;19.20;;;10.97;;
71773;SDS011;59607;52.130;5.430;2024-03-08T05:55:20;22.30;;;11.50;;
71773;SDS011;59607;52.130;5.430;2024-03-08T05:57:56;17.55;;;10.85;;
71773;SDS011;59607;52.130;5.430;2024-03-08T06:00:22;21.17;;;12.45;;
71773;SDS011;59607;52.130;5.430;2024-03-08T06:03:04;20.50;;;11.45;;
71773;SDS011;59607;52.130;5.430;2024-03-08T06:05:30;22.97;;;10.97;;
71773;SDS011;59607;52.130;5.430;2024-03-08T06:08:01;19.40;;;11.68;;
71773;SDS011;59607;52.130;5.430;2024-03-08T06:10:27;18.90;;;11.00;;
71773;SDS011;59607;52.130;5.430;2024-03-08T06:13:10;17.08;;;11.10;;
71773;SDS011;59607;52.130;5.430;2024-03-08T06:15:43;22.33;;;11.57;;
71773;SDS011;59607;52.130;5.430;2024-03-08T06:18:11;22.47;;;12.47;;
71773;SDS011;59607;52.130;5.430;2024-03-08T06:20:46;27.35;;;11.73;;
71773;SDS011;59607;52.130;5.430;2024-03-08T06:23:13;20.52;;;11.43;;
71773;SDS011;59607;52.130;5.430;2024-03-08T06:25:44;18.92;;;10.90;;
71773;SDS011;59607;52.130;5.430;2024-03-08T06:28:15;21.73;;;11.65;;
71773;SDS011;59607;52.130;5.430;2024-03-08T06:30:46;16.40;;;11.07;;
71773;SDS011;59607;52.130;5.430;2024-03-08T06:33:12;20.85;;;11.48;;
71773;SDS011;59607;52.130;5.430;2024-03-08T06:35:39;29.13;;;13.10;;
71773;SDS011;59607;52.130;5.430;2024-03-08T06:38:05;21.77;;;12.13;;
71773;SDS011;59607;52.130;5.430;2024-03-08T06:40:36;18.23;;;11.50;;
71773;SDS011;59607;52.130;5.430;2024-03-08T06:43:03;20.27;;;10.73;;
71773;SDS011;59607;52.130;5.430;2024-03-08T06:45:35;19.15;;;11.88;;
71773;SDS011;59607;52.130;5.430;2024-03-08T06:48:06;20.23;;;11.43;;
71773;SDS011;59607;52.130;5.430;2024-03-08T06:50:36;21.35;;;11.38;;
71773;SDS011;59607;52.130;5.430;2024-03-08T06:53:03;21.10;;;11.88;;
71773;SDS011;59607;52.130;5.430;2024-03-08T06:55:30;21.57;;;12.13;;
71773;SDS011;59607;52.130;5.430;2024-03-08T06:57:56;23.23;;;13.05;;
71773;SDS011;59607;52.130;5.430;2024-03-08T07:00:28;21.85;;;12.73;;
71773;SDS011;59607;52.130;5.430;2024-03-08T07:02:56;18.83;;;11.35;;
71773;SDS011;59607;52.130;5.430;2024-03-08T07:05:29;26.40;;;11.43;;
71773;SDS011;59607;52.130;5.430;2024-03-08T07:07:57;24.33;;;12.23;;
71773;SDS011;59607;52.130;5.430;2024-03-08T07:10:24;21.60;;;11.18;;
71773;SDS011;59607;52.130;5.430;2024-03-08T07:12:54;19.38;;;12.55;;
71773;SDS011;59607;52.130;5.430;2024-03-08T07:15:21;19.67;;;11.32;;
71773;SDS011;59607;52.130;5.430;2024-03-08T07:17:51;20.80;;;12.73;;
71773;SDS011;59607;52.130;5.430;2024-03-08T07:20:21;18.73;;;11.33;;
71773;SDS011;59607;52.130;5.430;2024-03-08T07:22:54;20.23;;;11.85;;
71773;SDS011;59607;52.130;5.430;2024-03-08T07:25:24;22.67;;;12.48;;
71773;SDS011;59607;52.130;5.430;2024-03-08T07:28:06;21.88;;;12.20;;
71773;SDS011;59607;52.130;5.430;2024-03-08T07:30:37;21.38;;;12.65;;
71773;SDS011;59607;52.130;5.430;2024-03-08T07:33:10;20.73;;;12.53;;
71773;SDS011;59607;52.130;5.430;2024-03-08T07:35:46;23.08;;;12.93;;
71773;SDS011;59607;52.130;5.430;2024-03-08T07:38:13;21.02;;;11.90;;
71773;SDS011;59607;52.130;5.430;2024-03-08T07:40:42;19.70;;;12.38;;
71773;SDS011;59607;52.130;5.430;2024-03-08T07:43:14;20.10;;;10.23;;
71773;SDS011;59607;52.130;5.430;2024-03-08T07:45:41;21.33;;;11.63;;
71773;SDS011;59607;52.130;5.430;2024-03-08T07:48:08;19.15;;;11.57;;
71773;SDS011;59607;52.130;5.430;2024-03-08T07:50:40;20.50;;;12.55;;
71773;SDS011;59607;52.130;5.430;2024-03-08T07:53:09;23.08;;;12.50;;
71773;SDS011;59607;52.130;5.430;2024-03-08T07:55:36;19.02;;;11.35;;
71773;SDS011;59607;52.130;5.430;2024-03-08T07:58:03;21.10;;;11.77;;
71773;SDS011;59607;52.130;5.430;2024-03-08T08:00:34;19.20;;;11.18;;
71773;SDS011;59607;52.130;5.430;2024-03-08T08:03:05;20.55;;;11.45;;
71773;SDS011;59607;52.130;5.430;2024-03-08T08:05:42;22.88;;;12.45;;
71773;SDS011;59607;52.130;5.430;2024-03-08T08:08:08;17.70;;;12.60;;
71773;SDS011;59607;52.130;5.430;2024-03-08T08:10:39;26.27;;;13.43;;
71773;SDS011;59607;52.130;5.430;2024-03-08T08:13:05;18.80;;;11.30;;
71773;SDS011;59607;52.130;5.430;2024-03-08T08:15:32;19.05;;;11.82;;
71773;SDS011;59607;52.130;5.430;2024-03-08T08:18:08;20.42;;;13.32;;
71773;SDS011;59607;52.130;5.430;2024-03-08T08:20:36;23.40;;;12.82;;
71773;SDS011;59607;52.130;5.430;2024-03-08T08:23:11;20.67;;;11.60;;
71773;SDS011;59607;52.130;5.430;2024-03-08T08:25:38;29.13;;;12.43;;
71773;SDS011;59607;52.130;5.430;2024-03-08T08:28:16;22.42;;;12.13;;
71773;SDS011;59607;52.130;5.430;2024-03-08T08:30:44;22.50;;;11.85;;
71773;SDS011;59607;52.130;5.430;2024-03-08T08:33:16;17.33;;;10.77;;
71773;SDS011;59607;52.130;5.430;2024-03-08T08:35:45;21.37;;;12.40;;
71773;SDS011;59607;52.130;5.430;2024-03-08T08:38:20;17.73;;;12.23;;
71773;SDS011;59607;52.130;5.430;2024-03-08T08:40:47;22.30;;;11.88;;
71773;SDS011;59607;52.130;5.430;2024-03-08T08:43:16;19.17;;;11.85;;
71773;SDS011;59607;52.130;5.430;2024-03-08T08:45:51;21.52;;;12.68;;
71773;SDS011;59607;52.130;5.430;2024-03-08T08:48:25;21.47;;;12.40;;
71773;SDS011;59607;52.130;5.430;2024-03-08T08:50:52;20.55;;;11.40;;
71773;SDS011;59607;52.130;5.430;2024-03-08T08:53:21;19.60;;;12.25;;
71773;SDS011;59607;52.130;5.430;2024-03-08T08:55:48;19.50;;;11.75;;
71773;SDS011;59607;52.130;5.430;2024-03-08T08:58:15;17.10;;;10.65;;
71773;SDS011;59607;52.130;5.430;2024-03-08T09:00:41;16.30;;;10.63;;
71773;SDS011;59607;52.130;5.430;2024-03-08T09:03:13;20.50;;;12.38;;
71773;SDS011;59607;52.130;5.430;2024-03-08T09:05:39;22.52;;;13.18;;
71773;SDS011;59607;52.130;5.430;2024-03-08T09:08:15;20.70;;;11.50;;
71773;SDS011;59607;52.130;5.430;2024-03-08T09:10:41;19.05;;;12.65;;
71773;SDS011;59607;52.130;5.430;2024-03-08T09:13:09;20.10;;;11.97;;
71773;SDS011;59607;52.130;5.430;2024-03-08T09:15:49;20.17;;;12.55;;
71773;SDS011;59607;52.130;5.430;2024-03-08T09:18:22;17.95;;;11.80;;
71773;SDS011;59607;52.130;5.430;2024-03-08T09:20:49;21.52;;;12.15;;
71773;SDS011;59607;52.130;5.430;2024-03-08T09:23:25;19.60;;;12.43;;
71773;SDS011;59607;52.130;5.430;2024-03-08T09:25:59;20.20;;;12.17;;
71773;SDS011;59607;52.130;5.430;2024-03-08T09:28:25;18.73;;;11.88;;
71773;SDS011;59607;52.130;5.430;2024-03-08T09:30:53;19.42;;;12.32;;
71773;SDS011;59607;52.130;5.430;2024-03-08T09:33:29;19.48;;;12.82;;
71773;SDS011;59607;52.130;5.430;2024-03-08T09:35:55;18.15;;;12.13;;
71773;SDS011;59607;52.130;5.430;2024-03-08T09:38:32;17.50;;;11.67;;
71773;SDS011;59607;52.130;5.430;2024-03-08T09:40:58;18.38;;;11.75;;
71773;SDS011;59607;52.130;5.430;2024-03-08T09:43:28;20.17;;;13.35;;
71773;SDS011;59607;52.130;5.430;2024-03-08T09:45:54;20.85;;;13.35;;
71773;SDS011;59607;52.130;5.430;2024-03-08T09:48:21;19.05;;;12.18;;
71773;SDS011;59607;52.130;5.430;2024-03-08T09:50:54;22.07;;;12.00;;
71773;SDS011;59607;52.130;5.430;2024-03-08T09:53:25;19.45;;;12.02;;
71773;SDS011;59607;52.130;5.430;2024-03-08T09:56:01;17.65;;;11.82;;
71773;SDS011;59607;52.130;5.430;2024-03-08T09:58:30;19.42;;;12.52;;
71773;SDS011;59607;52.130;5.430;2024-03-08T10:01:04;18.83;;;11.52;;
71773;SDS011;59607;52.130;5.430;2024-03-08T10:03:40;18.53;;;12.53;;
71773;SDS011;59607;52.130;5.430;2024-03-08T10:06:09;20.00;;;12.60;;
71773;SDS011;59607;52.130;5.430;2024-03-08T10:08:36;19.70;;;13.07;;
71773;SDS011;59607;52.130;5.430;2024-03-08T10:11:11;20.08;;;13.15;;
71773;SDS011;59607;52.130;5.430;2024-03-08T10:13:41;16.77;;;11.70;;
71773;SDS011;59607;52.130;5.430;2024-03-08T10:16:14;21.87;;;11.83;;
71773;SDS011;59607;52.130;5.430;2024-03-08T10:18:40;16.52;;;10.05;;
71773;SDS011;59607;52.130;5.430;2024-03-08T10:21:10;20.80;;;12.32;;
71773;SDS011;59607;52.130;5.430;2024-03-08T10:23:41;17.83;;;11.43;;
71773;SDS011;59607;52.130;5.430;2024-03-08T10:26:12;21.13;;;12.32;;
71773;SDS011;59607;52.130;5.430;2024-03-08T10:28:44;18.73;;;11.53;;
71773;SDS011;59607;52.130;5.430;2024-03-08T10:31:46;19.75;;;12.27;;
71773;SDS011;59607;52.130;5.430;2024-03-08T10:34:15;15.50;;;11.18;;
71773;SDS011;59607;52.130;5.430;2024-03-08T10:36:42;18.20;;;11.18;;
71773;SDS011;59607;52.130;5.430;2024-03-08T10:39:31;19.02;;;11.13;;
71773;SDS011;59607;52.130;5.430;2024-03-08T10:42:06;16.67;;;10.93;;
71773;SDS011;59607;52.130;5.430;2024-03-08T10:44:53;16.75;;;11.25;;
71773;SDS011;59607;52.130;5.430;2024-03-08T10:47:34;18.33;;;11.20;;
71773;SDS011;59607;52.130;5.430;2024-03-08T10:50:19;18.35;;;11.00;;
71773;SDS011;59607;52.130;5.430;2024-03-08T10:52:51;18.08;;;11.35;;
71773;SDS011;59607;52.130;5.430;2024-03-08T10:55:19;15.03;;;10.30;;
71773;SDS011;59607;52.130;5.430;2024-03-08T10:57:54;16.27;;;11.30;;
71773;SDS011;59607;52.130;5.430;2024-03-08T11:00:21;16.38;;;11.48;;
71773;SDS011;59607;52.130;5.430;2024-03-08T11:02:55;20.15;;;11.15;;
71773;SDS011;59607;52.130;5.430;2024-03-08T11:05:38;15.98;;;10.43;;
71773;SDS011;59607;52.130;5.430;2024-03-08T11:08:20;14.23;;;10.63;;
71773;SDS011;59607;52.130;5.430;2024-03-08T11:10:55;17.88;;;10.98;;
71773;SDS011;59607;52.130;5.430;2024-03-08T11:13:42;14.43;;;10.80;;
71773;SDS011;59607;52.130;5.430;2024-03-08T11:18:54;14.77;;;9.82;;
71773;SDS011;59607;52.130;5.430;2024-03-08T11:21:46;15.37;;;10.17;;
71773;SDS011;59607;52.130;5.430;2024-03-08T12:08:38;10.77;;;8.60;;
71773;SDS011;59607;52.130;5.430;2024-03-08T12:11:05;9.98;;;8.30;;
71773;SDS011;59607;52.130;5.430;2024-03-08T12:13:33;11.93;;;8.87;;
71773;SDS011;59607;52.130;5.430;2024-03-08T12:16:07;12.52;;;8.48;;
71773;SDS011;59607;52.130;5.430;2024-03-08T12:18:36;10.57;;;8.35;;
71773;SDS011;59607;52.130;5.430;2024-03-08T12:21:18;15.32;;;8.45;;
71773;SDS011;59607;52.130;5.430;2024-03-08T12:24:07;10.77;;;8.32;;
71773;SDS011;59607;52.130;5.430;2024-03-08T12:26:42;11.00;;;7.43;;
71773;SDS011;59607;52.130;5.430;2024-03-08T12:29:15;12.55;;;8.25;;
71773;SDS011;59607;52.130;5.430;2024-03-08T12:31:43;14.32;;;7.80;;
71773;SDS011;59607;52.130;5.430;2024-03-08T12:34:24;11.23;;;7.80;;
71773;SDS011;59607;52.130;5.430;2024-03-08T12:36:54;13.63;;;8.18;;
71773;SDS011;59607;52.130;5.430;2024-03-08T12:39:24;11.70;;;7.80;;
71773;SDS011;59607;52.130;5.430;2024-03-08T12:42:03;13.35;;;8.38;;
71773;SDS011;59607;52.130;5.430;2024-03-08T12:44:30;10.77;;;7.95;;
71773;SDS011;59607;52.130;5.430;2024-03-08T12:46:57;9.63;;;7.45;;
71773;SDS011;59607;52.130;5.430;2024-03-08T12:49:29;11.40;;;8.82;;
71773;SDS011;59607;52.130;5.430;2024-03-08T12:51:57;14.20;;;8.67;;
71773;SDS011;59607;52.130;5.430;2024-03-08T12:54:29;11.55;;;8.68;;
71773;SDS011;59607;52.130;5.430;2024-03-08T12:57:00;11.75;;;8.70;;
71773;SDS011;59607;52.130;5.430;2024-03-08T12:59:32;12.32;;;8.65;;
71773;SDS011;59607;52.130;5.430;2024-03-08T13:01:58;12.52;;;8.77;;
71773;SDS011;59607;52.130;5.430;2024-03-08T13:04:28;12.60;;;9.03;;
71773;SDS011;59607;52.130;5.430;2024-03-08T13:07:00;12.45;;;8.48;;
71773;SDS011;59607;52.130;5.430;2024-03-08T13:09:31;9.40;;;8.05;;
71773;SDS011;59607;52.130;5.430;2024-03-08T13:11:57;9.80;;;7.72;;
71773;SDS011;59607;52.130;5.430;2024-03-08T13:14:30;12.10;;;9.07;;
71773;SDS011;59607;52.130;5.430;2024-03-08T13:17:03;12.27;;;9.17;;
71773;SDS011;59607;52.130;5.430;2024-03-08T13:19:30;11.45;;;7.82;;
71773;SDS011;59607;52.130;5.430;2024-03-08T13:22:02;10.60;;;8.02;;
71773;SDS011;59607;52.130;5.430;2024-03-08T13:24:31;12.30;;;9.63;;
71773;SDS011;59607;52.130;5.430;2024-03-08T13:27:14;11.30;;;8.80;;
71773;SDS011;59607;52.130;5.430;2024-03-08T13:29:50;12.60;;;8.97;;
71773;SDS011;59607;52.130;5.430;2024-03-08T13:32:20;11.20;;;8.68;;
71773;SDS011;59607;52.130;5.430;2024-03-08T13:34:55;15.50;;;8.63;;
71773;SDS011;59607;52.130;5.430;2024-03-08T13:37:26;11.93;;;8.35;;
71773;SDS011;59607;52.130;5.430;2024-03-08T13:40:00;12.23;;;8.57;;
71773;SDS011;59607;52.130;5.430;2024-03-08T13:42:36;10.77;;;8.53;;
71773;SDS011;59607;52.130;5.430;2024-03-08T13:45:09;10.90;;;8.35;;
71773;SDS011;59607;52.130;5.430;2024-03-08T13:47:46;13.20;;;9.43;;
71773;SDS011;59607;52.130;5.430;2024-03-08T13:50:19;13.20;;;9.40;;
71773;SDS011;59607;52.130;5.430;2024-03-08T13:52:49;14.35;;;9.48;;
71773;SDS011;59607;52.130;5.430;2024-03-08T13:55:27;17.47;;;9.50;;
71773;SDS011;59607;52.130;5.430;2024-03-08T13:57:56;11.63;;;8.90;;
71773;SDS011;59607;52.130;5.430;2024-03-08T14:00:27;11.85;;;8.73;;
71773;SDS011;59607;52.130;5.430;2024-03-08T14:03:13;11.32;;;8.48;;
71773;SDS011;59607;52.130;5.430;2024-03-08T14:05:40;10.27;;;8.55;;
71773;SDS011;59607;52.130;5.430;2024-03-08T14:53:17;13.13;;;9.37;;
71773;SDS011;59607;52.130;5.430;2024-03-08T14:55:45;13.10;;;9.68;;
71773;SDS011;59607;52.130;5.430;2024-03-08T14:58:13;14.38;;;9.23;;
71773;SDS011;59607;52.130;5.430;2024-03-08T15:00:48;13.52;;;9.45;;
71773;SDS011;59607;52.130;5.430;2024-03-08T15:03:22;16.10;;;9.20;;
71773;SDS011;59607;52.130;5.430;2024-03-08T15:05:56;11.48;;;9.23;;
71773;SDS011;59607;52.130;5.430;2024-03-08T15:08:22;13.00;;;8.88;;
71773;SDS011;59607;52.130;5.430;2024-03-08T15:10:53;13.27;;;9.18;;
71773;SDS011;59607;52.130;5.430;2024-03-08T15:13:31;12.70;;;9.27;;
71773;SDS011;59607;52.130;5.430;2024-03-08T15:16:11;15.07;;;9.07;;
71773;SDS011;59607;52.130;5.430;2024-03-08T15:18:44;12.23;;;8.35;;
71773;SDS011;59607;52.130;5.430;2024-03-08T15:21:18;12.98;;;9.15;;
71773;SDS011;59607;52.130;5.430;2024-03-08T15:23:45;17.25;;;9.50;;
71773;SDS011;59607;52.130;5.430;2024-03-08T15:26:23;10.88;;;8.75;;
71773;SDS011;59607;52.130;5.430;2024-03-08T15:28:54;12.17;;;9.17;;
71773;SDS011;59607;52.130;5.430;2024-03-08T15:31:29;14.45;;;10.05;;
71773;SDS011;59607;52.130;5.430;2024-03-08T15:34:00;15.85;;;9.93;;
71773;SDS011;59607;52.130;5.430;2024-03-08T15:36:32;14.13;;;9.10;;
71773;SDS011;59607;52.130;5.430;2024-03-08T15:39:08;15.75;;;10.55;;
71773;SDS011;59607;52.130;5.430;2024-03-08T15:41:36;12.40;;;9.47;;
71773;SDS011;59607;52.130;5.430;2024-03-08T15:44:06;12.50;;;8.65;;
71773;SDS011;59607;52.130;5.430;2024-03-08T15:46:40;11.27;;;8.77;;
71773;SDS011;59607;52.130;5.430;2024-03-08T15:49:22;17.20;;;8.93;;
71773;SDS011;59607;52.130;5.430;2024-03-08T15:51:55;10.05;;;7.45;;
71773;SDS011;59607;52.130;5.430;2024-03-08T15:54:21;12.50;;;7.90;;
71773;SDS011;59607;52.130;5.430;2024-03-08T15:56:51;12.55;;;8.50;;
71773;SDS011;59607;52.130;5.430;2024-03-08T15:59:25;11.25;;;8.93;;
71773;SDS011;59607;52.130;5.430;2024-03-08T16:02:00;12.07;;;8.43;;
71773;SDS011;59607;52.130;5.430;2024-03-08T16:04:27;11.88;;;8.82;;
71773;SDS011;59607;52.130;5.430;2024-03-08T16:06:53;11.07;;;8.93;;
71773;SDS011;59607;52.130;5.430;2024-03-08T16:09:26;12.50;;;9.20;;
71773;SDS011;59607;52.130;5.430;2024-03-08T16:11:56;9.93;;;8.15;;
71773;SDS011;59607;52.130;5.430;2024-03-08T16:14:27;13.68;;;8.80;;
71773;SDS011;59607;52.130;5.430;2024-03-08T16:16:54;15.32;;;8.38;;
71773;SDS011;59607;52.130;5.430;2024-03-08T16:19:27;16.03;;;9.23;;
71773;SDS011;59607;52.130;5.430;2024-03-08T16:21:59;10.55;;;8.40;;